Zim Qingdao — A8IZ2 — position and weather

sailwx.info

Track history (hours):
 
Tides and Currents Weather Stations Pressure Air Temp Water Temp Dewpoint Dewpoint Depression Visibility Wind Speed Wind Dir Waves Ship Positions

Zim Qingdao

Last reported at 2015-Mar-29 22:33 UTC. Time now 2015-Mar-30 09:24 UTC.
Position N 37°35' E 023°42'.

Length 260.61 m; beam 32.25 m; draft 12.6 m.

Type: Cargo ship. MMSI: 636012904.

Date/timePositionNaut miles runAvg speedWind from/ knotsBaromVisibWave heightAir tempDewpointWater temp
2015-Mar-29 22:33N 37°35' E 023°42'1615.6
2015-Mar-29 21:33N 37°49' E 023°36'4 3.6
2015-Mar-29 20:33N 37°52' E 023°33'0 0.0
2015-Mar-29 19:33N 37°52' E 023°33'0 0.1
2015-Mar-29 18:33N 37°52' E 023°33'0 0.1
2015-Mar-29 17:33N 37°52' E 023°32'0 0.0
2015-Mar-29 16:33N 37°52' E 023°32'0 0.0
2015-Mar-29 15:33N 37°52' E 023°32'5 4.7
2015-Mar-29 14:34N 37°56' E 023°36'2 1.7
2015-Mar-29 13:31N 37°57' E 023°35'0 0.0
2015-Mar-29 12:31N 37°57' E 023°35'0 0.0
2015-Mar-29 11:31N 37°57' E 023°35'0 0.0
2015-Mar-29 10:31N 37°57' E 023°35'0 0.0
2015-Mar-29 09:28N 37°57' E 023°35'0 0.0
2015-Mar-29 08:31N 37°57' E 023°35'0 0.0
2015-Mar-29 07:31N 37°57' E 023°35'0 0.0
2015-Mar-29 06:31N 37°57' E 023°35'0 0.0
2015-Mar-29 05:28N 37°57' E 023°35'0 0.0
2015-Mar-29 04:31N 37°57' E 023°35'0 0.0
2015-Mar-29 03:31N 37°57' E 023°35'0 0.0
2015-Mar-29 02:31N 37°57' E 023°35'0 0.0
2015-Mar-29 01:31N 37°57' E 023°35'0 0.0
2015-Mar-29 00:25N 37°57' E 023°35'2 1.8
2015-Mar-28 23:33N 37°56' E 023°36'8 7.8
2015-Mar-28 22:33N 37°49' E 023°40'1212.4
2015-Mar-28 21:33N 37°38' E 023°47'102 9.0
2015-Mar-28 10:07N 36°12' E 024°58'5 9.0
2015-Mar-28 09:33N 36°10' E 025°03'1010.3
2015-Mar-28 08:32N 36°04' E 025°14'1513.4
2015-Mar-28 07:25N 35°55' E 025°29'34714.5
2015-Mar-27 07:33N 33°40' E 031°59'1414.0
2015-Mar-27 06:33N 33°35' E 032°14'1514.6
2015-Mar-27 05:33N 33°30' E 032°31'1514.7
2015-Mar-27 04:33N 33°25' E 032°47'1514.9
2015-Mar-27 03:33N 33°20' E 033°04'1514.7
2015-Mar-27 02:33N 33°15' E 033°20'1514.8
2015-Mar-27 01:33N 33°09' E 033°37'1515.0
2015-Mar-27 00:33N 33°04' E 033°53'1515.0
2015-Mar-26 23:33N 33°00' E 034°11'1514.9
2015-Mar-26 22:33N 32°58' E 034°28'1514.5
2015-Mar-26 21:33N 32°55' E 034°45'14 2.9
2015-Mar-26 16:29N 32°49' E 035°01'5 0.2
2015-Mar-25 11:06N 32°53' E 034°56'814.1
2015-Mar-25 10:30N 32°55' E 034°47'1714.7
2015-Mar-25 09:21N 32°58' E 034°27'3114.8
2015-Mar-25 07:17N 33°05' E 033°51'  
2015-Mar-22 04:04N 40°22' E 013°11'915.2
2015-Mar-22 03:26N 40°29' E 013°02'19814.8
2015-Mar-21 14:05N 43°06' E 010°20'815.4
2015-Mar-21 13:33N 43°14' E 010°17'1515.3
2015-Mar-21 12:34N 43°29' E 010°14'7 6.0
2015-Mar-21 11:26N 43°34' E 010°18'0 0.0
2015-Mar-21 10:32N 43°34' E 010°18'0 0.0
2015-Mar-21 09:32N 43°34' E 010°18'0 0.0
2015-Mar-21 08:26N 43°34' E 010°18'0 0.0
2015-Mar-21 07:32N 43°34' E 010°18'0 0.0
2015-Mar-21 06:32N 43°34' E 010°18'0 0.0
2015-Mar-21 05:26N 43°34' E 010°18'0 0.0
2015-Mar-21 04:29N 43°34' E 010°18'0 0.0
2015-Mar-21 03:32N 43°34' E 010°18'0 0.0
2015-Mar-21 02:32N 43°34' E 010°18'0 0.0
2015-Mar-21 01:32N 43°34' E 010°18'0 0.0
2015-Mar-21 00:29N 43°34' E 010°18'0 0.0
2015-Mar-20 23:32N 43°34' E 010°18'0 0.0
2015-Mar-20 22:29N 43°34' E 010°18'0 0.0
2015-Mar-20 21:32N 43°34' E 010°18'0 0.0
2015-Mar-20 20:32N 43°34' E 010°18'0 0.0
2015-Mar-20 19:32N 43°34' E 010°18'0 0.0
2015-Mar-20 18:32N 43°34' E 010°18'0 0.0
2015-Mar-20 17:32N 43°34' E 010°18'0 0.0
2015-Mar-20 16:32N 43°34' E 010°18'0 0.0
2015-Mar-20 15:32N 43°34' E 010°18'0 0.0
2015-Mar-20 14:32N 43°34' E 010°18'0 0.0
2015-Mar-20 13:32N 43°34' E 010°18'0 0.0
2015-Mar-20 12:32N 43°34' E 010°18'2 2.4
2015-Mar-20 11:33N 43°32' E 010°17'4 4.4
2015-Mar-20 10:33N 43°29' E 010°13'8 8.2
2015-Mar-20 09:33N 43°24' E 010°04'1211.6
2015-Mar-20 08:33N 43°18' E 009°51'1818.0
2015-Mar-20 07:33N 43°13' E 009°27'1818.1
2015-Mar-20 06:33N 43°07' E 009°03'1818.0
2015-Mar-20 05:33N 43°01' E 008°40'1717.4
2015-Mar-20 04:33N 42°56' E 008°17'1817.7
2015-Mar-20 03:33N 42°50' E 007°54'2017.7
2015-Mar-20 02:26N 42°44' E 007°29'1617.9
2015-Mar-20 01:33N 42°39' E 007°08'3617.8
2015-Mar-19 23:33N 42°27' E 006°23'  
Track history (hours):
 
Tides and Currents Weather Stations Pressure Air Temp Water Temp Dewpoint Dewpoint Depression Visibility Wind Speed Wind Dir Waves Ship Positions

Zim Qingdao

Last reported at 2015-Mar-29 22:33 UTC. Time now 2015-Mar-30 09:24 UTC.
Position N 37°35' E 023°42'.

Length 260.61 m; beam 32.25 m; draft 12.6 m.

Type: Cargo ship. MMSI: 636012904.

Date/timePositionNaut miles runAvg speedWind from/ knotsBaromVisibWave heightAir tempDewpointWater temp
2015-Mar-29 22:33N 37°35' E 023°42'1615.6
2015-Mar-29 21:33N 37°49' E 023°36'4 3.6
2015-Mar-29 20:33N 37°52' E 023°33'0 0.0
2015-Mar-29 19:33N 37°52' E 023°33'0 0.1
2015-Mar-29 18:33N 37°52' E 023°33'0 0.1
2015-Mar-29 17:33N 37°52' E 023°32'0 0.0
2015-Mar-29 16:33N 37°52' E 023°32'0 0.0
2015-Mar-29 15:33N 37°52' E 023°32'5 4.7
2015-Mar-29 14:34N 37°56' E 023°36'2 1.7
2015-Mar-29 13:31N 37°57' E 023°35'0 0.0
2015-Mar-29 12:31N 37°57' E 023°35'0 0.0
2015-Mar-29 11:31N 37°57' E 023°35'0 0.0
2015-Mar-29 10:31N 37°57' E 023°35'0 0.0
2015-Mar-29 09:28N 37°57' E 023°35'0 0.0
2015-Mar-29 08:31N 37°57' E 023°35'0 0.0
2015-Mar-29 07:31N 37°57' E 023°35'0 0.0
2015-Mar-29 06:31N 37°57' E 023°35'0 0.0
2015-Mar-29 05:28N 37°57' E 023°35'0 0.0
2015-Mar-29 04:31N 37°57' E 023°35'0 0.0
2015-Mar-29 03:31N 37°57' E 023°35'0 0.0
2015-Mar-29 02:31N 37°57' E 023°35'0 0.0
2015-Mar-29 01:31N 37°57' E 023°35'0 0.0
2015-Mar-29 00:25N 37°57' E 023°35'2 1.8
2015-Mar-28 23:33N 37°56' E 023°36'8 7.8
2015-Mar-28 22:33N 37°49' E 023°40'1212.4
2015-Mar-28 21:33N 37°38' E 023°47'102 9.0
2015-Mar-28 10:07N 36°12' E 024°58'5 9.0
2015-Mar-28 09:33N 36°10' E 025°03'1010.3
2015-Mar-28 08:32N 36°04' E 025°14'1513.4
2015-Mar-28 07:25N 35°55' E 025°29'34714.5
2015-Mar-27 07:33N 33°40' E 031°59'1414.0
2015-Mar-27 06:33N 33°35' E 032°14'1514.6
2015-Mar-27 05:33N 33°30' E 032°31'1514.7
2015-Mar-27 04:33N 33°25' E 032°47'1514.9
2015-Mar-27 03:33N 33°20' E 033°04'1514.7
2015-Mar-27 02:33N 33°15' E 033°20'1514.8
2015-Mar-27 01:33N 33°09' E 033°37'1515.0
2015-Mar-27 00:33N 33°04' E 033°53'1515.0
2015-Mar-26 23:33N 33°00' E 034°11'1514.9
2015-Mar-26 22:33N 32°58' E 034°28'1514.5
2015-Mar-26 21:33N 32°55' E 034°45'14 2.9
2015-Mar-26 16:29N 32°49' E 035°01'5 0.2
2015-Mar-25 11:06N 32°53' E 034°56'814.1
2015-Mar-25 10:30N 32°55' E 034°47'1714.7
2015-Mar-25 09:21N 32°58' E 034°27'3114.8
2015-Mar-25 07:17N 33°05' E 033°51'  
2015-Mar-22 04:04N 40°22' E 013°11'915.2
2015-Mar-22 03:26N 40°29' E 013°02'19814.8
2015-Mar-21 14:05N 43°06' E 010°20'815.4
2015-Mar-21 13:33N 43°14' E 010°17'1515.3
2015-Mar-21 12:34N 43°29' E 010°14'7 6.0
2015-Mar-21 11:26N 43°34' E 010°18'0 0.0
2015-Mar-21 10:32N 43°34' E 010°18'0 0.0
2015-Mar-21 09:32N 43°34' E 010°18'0 0.0
2015-Mar-21 08:26N 43°34' E 010°18'0 0.0
2015-Mar-21 07:32N 43°34' E 010°18'0 0.0
2015-Mar-21 06:32N 43°34' E 010°18'0 0.0
2015-Mar-21 05:26N 43°34' E 010°18'0 0.0
2015-Mar-21 04:29N 43°34' E 010°18'0 0.0
2015-Mar-21 03:32N 43°34' E 010°18'0 0.0
2015-Mar-21 02:32N 43°34' E 010°18'0 0.0
2015-Mar-21 01:32N 43°34' E 010°18'0 0.0
2015-Mar-21 00:29N 43°34' E 010°18'0 0.0
2015-Mar-20 23:32N 43°34' E 010°18'0 0.0
2015-Mar-20 22:29N 43°34' E 010°18'0 0.0
2015-Mar-20 21:32N 43°34' E 010°18'0 0.0
2015-Mar-20 20:32N 43°34' E 010°18'0 0.0
2015-Mar-20 19:32N 43°34' E 010°18'0 0.0
2015-Mar-20 18:32N 43°34' E 010°18'0 0.0
2015-Mar-20 17:32N 43°34' E 010°18'0 0.0
2015-Mar-20 16:32N 43°34' E 010°18'0 0.0
2015-Mar-20 15:32N 43°34' E 010°18'0 0.0
2015-Mar-20 14:32N 43°34' E 010°18'0 0.0
2015-Mar-20 13:32N 43°34' E 010°18'0 0.0
2015-Mar-20 12:32N 43°34' E 010°18'2 2.4
2015-Mar-20 11:33N 43°32' E 010°17'4 4.4
2015-Mar-20 10:33N 43°29' E 010°13'8 8.2
2015-Mar-20 09:33N 43°24' E 010°04'1211.6
2015-Mar-20 08:33N 43°18' E 009°51'1818.0
2015-Mar-20 07:33N 43°13' E 009°27'1818.1
2015-Mar-20 06:33N 43°07' E 009°03'1818.0
2015-Mar-20 05:33N 43°01' E 008°40'1717.4
2015-Mar-20 04:33N 42°56' E 008°17'1817.7
2015-Mar-20 03:33N 42°50' E 007°54'2017.7
2015-Mar-20 02:26N 42°44' E 007°29'1617.9
2015-Mar-20 01:33N 42°39' E 007°08'3617.8
2015-Mar-19 23:33N 42°27' E 006°23'  

Dump ship's entire track history